Aviation Digital Data Service (ADDS)

Output produced by METARs form (0653 UTC 22 July 2017)
found at http://aviationweather.gov/adds/metars/
 
KAEX 220520Z 2206/2306 VRB03KT P6SM SCT100 
     FM221800 VRB05KT P6SM VCTS BKN040CB 
     FM230200 VRB03KT P6SM BKN250